sensor_id;sensor_type;location;lat;lon;timestamp;P1;durP1;ratioP1;P2;durP2;ratioP2
13443;SDS011;6794;59.218;18.218;2022-10-31T00:02:04;19.43;;;11.97;;
13443;SDS011;6794;59.218;18.218;2022-10-31T00:04:30;16.33;;;11.97;;
13443;SDS011;6794;59.218;18.218;2022-10-31T00:06:56;20.07;;;12.63;;
13443;SDS011;6794;59.218;18.218;2022-10-31T00:09:22;17.47;;;11.77;;
13443;SDS011;6794;59.218;18.218;2022-10-31T00:11:48;16.00;;;10.37;;
13443;SDS011;6794;59.218;18.218;2022-10-31T00:14:14;20.00;;;10.37;;
13443;SDS011;6794;59.218;18.218;2022-10-31T00:16:40;19.20;;;12.03;;
13443;SDS011;6794;59.218;18.218;2022-10-31T00:19:06;15.50;;;11.00;;
13443;SDS011;6794;59.218;18.218;2022-10-31T00:21:33;16.73;;;10.67;;
13443;SDS011;6794;59.218;18.218;2022-10-31T00:23:59;17.38;;;12.05;;
13443;SDS011;6794;59.218;18.218;2022-10-31T00:26:29;17.27;;;11.20;;
13443;SDS011;6794;59.218;18.218;2022-10-31T00:28:56;14.20;;;9.73;;
13443;SDS011;6794;59.218;18.218;2022-10-31T00:31:22;16.10;;;10.57;;
13443;SDS011;6794;59.218;18.218;2022-10-31T00:33:48;13.97;;;10.23;;
13443;SDS011;6794;59.218;18.218;2022-10-31T00:36:15;15.60;;;11.03;;
13443;SDS011;6794;59.218;18.218;2022-10-31T00:38:42;18.37;;;11.57;;
13443;SDS011;6794;59.218;18.218;2022-10-31T00:41:09;18.17;;;11.03;;
13443;SDS011;6794;59.218;18.218;2022-10-31T00:43:35;14.60;;;10.33;;
13443;SDS011;6794;59.218;18.218;2022-10-31T00:46:01;14.27;;;10.07;;
13443;SDS011;6794;59.218;18.218;2022-10-31T00:48:27;13.17;;;10.10;;
13443;SDS011;6794;59.218;18.218;2022-10-31T00:50:54;16.80;;;10.97;;
13443;SDS011;6794;59.218;18.218;2022-10-31T00:53:20;15.17;;;10.17;;
13443;SDS011;6794;59.218;18.218;2022-10-31T00:55:46;17.20;;;9.97;;
13443;SDS011;6794;59.218;18.218;2022-10-31T00:58:12;16.60;;;10.00;;
13443;SDS011;6794;59.218;18.218;2022-10-31T01:00:38;18.23;;;10.33;;
13443;SDS011;6794;59.218;18.218;2022-10-31T01:03:04;19.43;;;10.70;;
13443;SDS011;6794;59.218;18.218;2022-10-31T01:05:30;17.80;;;11.10;;
13443;SDS011;6794;59.218;18.218;2022-10-31T01:07:56;15.07;;;9.63;;
13443;SDS011;6794;59.218;18.218;2022-10-31T01:10:22;19.07;;;11.33;;
13443;SDS011;6794;59.218;18.218;2022-10-31T01:12:48;15.70;;;10.00;;
13443;SDS011;6794;59.218;18.218;2022-10-31T01:15:19;15.50;;;9.83;;
13443;SDS011;6794;59.218;18.218;2022-10-31T01:17:46;15.00;;;9.43;;
13443;SDS011;6794;59.218;18.218;2022-10-31T01:20:13;15.03;;;9.13;;
13443;SDS011;6794;59.218;18.218;2022-10-31T01:22:40;15.50;;;9.93;;
13443;SDS011;6794;59.218;18.218;2022-10-31T01:25:06;14.83;;;9.77;;
13443;SDS011;6794;59.218;18.218;2022-10-31T01:27:33;13.73;;;9.23;;
13443;SDS011;6794;59.218;18.218;2022-10-31T01:29:59;13.73;;;8.87;;
13443;SDS011;6794;59.218;18.218;2022-10-31T01:32:25;15.47;;;9.60;;
13443;SDS011;6794;59.218;18.218;2022-10-31T01:34:53;18.73;;;10.07;;
13443;SDS011;6794;59.218;18.218;2022-10-31T01:37:19;15.70;;;9.30;;
13443;SDS011;6794;59.218;18.218;2022-10-31T01:39:47;16.33;;;9.63;;
13443;SDS011;6794;59.218;18.218;2022-10-31T01:42:18;14.30;;;9.27;;
13443;SDS011;6794;59.218;18.218;2022-10-31T01:44:52;13.60;;;9.23;;
13443;SDS011;6794;59.218;18.218;2022-10-31T01:47:19;13.47;;;9.10;;
13443;SDS011;6794;59.218;18.218;2022-10-31T01:49:49;12.13;;;8.43;;
13443;SDS011;6794;59.218;18.218;2022-10-31T01:52:24;15.53;;;8.13;;
13443;SDS011;6794;59.218;18.218;2022-10-31T01:54:55;11.83;;;8.67;;
13443;SDS011;6794;59.218;18.218;2022-10-31T01:57:22;13.17;;;9.33;;
13443;SDS011;6794;59.218;18.218;2022-10-31T01:59:49;13.03;;;8.43;;
13443;SDS011;6794;59.218;18.218;2022-10-31T02:02:17;12.50;;;8.80;;
13443;SDS011;6794;59.218;18.218;2022-10-31T02:04:44;13.50;;;10.00;;
13443;SDS011;6794;59.218;18.218;2022-10-31T02:07:12;12.77;;;8.53;;
13443;SDS011;6794;59.218;18.218;2022-10-31T02:09:40;12.60;;;8.37;;
13443;SDS011;6794;59.218;18.218;2022-10-31T02:12:06;13.60;;;8.47;;
13443;SDS011;6794;59.218;18.218;2022-10-31T02:14:34;12.30;;;8.63;;
13443;SDS011;6794;59.218;18.218;2022-10-31T02:17:01;14.47;;;8.63;;
13443;SDS011;6794;59.218;18.218;2022-10-31T02:30:02;10.90;;;8.30;;
13443;SDS011;6794;59.218;18.218;2022-10-31T02:37:31;10.83;;;7.00;;
13443;SDS011;6794;59.218;18.218;2022-10-31T02:42:34;13.43;;;8.40;;
13443;SDS011;6794;59.218;18.218;2022-10-31T02:45:08;12.43;;;7.50;;
13443;SDS011;6794;59.218;18.218;2022-10-31T02:47:39;11.97;;;7.90;;
13443;SDS011;6794;59.218;18.218;2022-10-31T02:50:07;10.97;;;6.87;;
13443;SDS011;6794;59.218;18.218;2022-10-31T02:52:34;11.67;;;7.63;;
13443;SDS011;6794;59.218;18.218;2022-10-31T02:57:45;9.83;;;7.23;;
13443;SDS011;6794;59.218;18.218;2022-10-31T03:00:12;10.50;;;6.83;;
13443;SDS011;6794;59.218;18.218;2022-10-31T03:08:00;10.73;;;7.10;;
13443;SDS011;6794;59.218;18.218;2022-10-31T03:15:44;8.83;;;5.87;;
13443;SDS011;6794;59.218;18.218;2022-10-31T03:18:19;8.13;;;6.20;;
13443;SDS011;6794;59.218;18.218;2022-10-31T03:20:59;12.60;;;6.60;;
13443;SDS011;6794;59.218;18.218;2022-10-31T03:23:27;8.80;;;5.90;;
13443;SDS011;6794;59.218;18.218;2022-10-31T03:25:54;8.97;;;6.23;;
13443;SDS011;6794;59.218;18.218;2022-10-31T03:28:23;9.00;;;5.70;;
13443;SDS011;6794;59.218;18.218;2022-10-31T03:30:50;8.67;;;5.97;;
13443;SDS011;6794;59.218;18.218;2022-10-31T03:33:18;7.87;;;5.57;;
13443;SDS011;6794;59.218;18.218;2022-10-31T03:35:47;9.83;;;5.43;;
13443;SDS011;6794;59.218;18.218;2022-10-31T03:38:14;8.50;;;5.63;;
13443;SDS011;6794;59.218;18.218;2022-10-31T03:40:40;7.17;;;4.80;;
13443;SDS011;6794;59.218;18.218;2022-10-31T03:43:10;9.03;;;5.37;;
13443;SDS011;6794;59.218;18.218;2022-10-31T03:45:38;10.98;;;5.00;;
13443;SDS011;6794;59.218;18.218;2022-10-31T03:48:06;6.80;;;4.73;;
13443;SDS011;6794;59.218;18.218;2022-10-31T03:50:37;10.23;;;4.47;;
13443;SDS011;6794;59.218;18.218;2022-10-31T03:53:05;7.53;;;4.97;;
13443;SDS011;6794;59.218;18.218;2022-10-31T04:00:33;8.93;;;5.17;;
13443;SDS011;6794;59.218;18.218;2022-10-31T04:05:26;16.60;;;6.33;;
13443;SDS011;6794;59.218;18.218;2022-10-31T04:07:53;16.50;;;6.10;;
13443;SDS011;6794;59.218;18.218;2022-10-31T04:10:21;10.73;;;5.13;;
13443;SDS011;6794;59.218;18.218;2022-10-31T04:12:49;12.77;;;4.77;;
13443;SDS011;6794;59.218;18.218;2022-10-31T04:15:16;9.90;;;5.00;;
13443;SDS011;6794;59.218;18.218;2022-10-31T04:17:43;13.27;;;5.30;;
13443;SDS011;6794;59.218;18.218;2022-10-31T04:20:11;16.67;;;6.23;;
13443;SDS011;6794;59.218;18.218;2022-10-31T04:22:37;14.27;;;5.57;;
13443;SDS011;6794;59.218;18.218;2022-10-31T04:25:03;15.73;;;6.13;;
13443;SDS011;6794;59.218;18.218;2022-10-31T04:27:29;21.83;;;6.30;;
13443;SDS011;6794;59.218;18.218;2022-10-31T04:29:55;24.10;;;6.33;;
13443;SDS011;6794;59.218;18.218;2022-10-31T04:32:21;27.43;;;7.80;;
13443;SDS011;6794;59.218;18.218;2022-10-31T04:34:47;30.50;;;7.33;;
13443;SDS011;6794;59.218;18.218;2022-10-31T04:37:13;28.93;;;7.20;;
13443;SDS011;6794;59.218;18.218;2022-10-31T04:39:39;30.20;;;7.10;;
13443;SDS011;6794;59.218;18.218;2022-10-31T04:42:05;43.60;;;8.70;;
13443;SDS011;6794;59.218;18.218;2022-10-31T04:44:31;46.33;;;9.30;;
13443;SDS011;6794;59.218;18.218;2022-10-31T04:46:57;60.17;;;9.97;;
13443;SDS011;6794;59.218;18.218;2022-10-31T04:49:23;143.07;;;13.43;;
13443;SDS011;6794;59.218;18.218;2022-10-31T04:51:49;186.80;;;13.87;;
13443;SDS011;6794;59.218;18.218;2022-10-31T04:54:15;64.50;;;10.27;;
13443;SDS011;6794;59.218;18.218;2022-10-31T04:56:41;147.33;;;16.17;;
13443;SDS011;6794;59.218;18.218;2022-10-31T04:59:07;320.60;;;23.37;;
13443;SDS011;6794;59.218;18.218;2022-10-31T05:01:33;144.70;;;12.87;;
13443;SDS011;6794;59.218;18.218;2022-10-31T05:03:59;189.40;;;13.90;;
13443;SDS011;6794;59.218;18.218;2022-10-31T05:06:25;132.67;;;12.97;;
13443;SDS011;6794;59.218;18.218;2022-10-31T05:08:51;180.57;;;14.70;;
13443;SDS011;6794;59.218;18.218;2022-10-31T05:11:18;170.70;;;14.17;;
13443;SDS011;6794;59.218;18.218;2022-10-31T05:13:44;243.70;;;17.83;;
13443;SDS011;6794;59.218;18.218;2022-10-31T05:16:10;85.40;;;12.33;;
13443;SDS011;6794;59.218;18.218;2022-10-31T05:18:36;218.07;;;17.93;;
13443;SDS011;6794;59.218;18.218;2022-10-31T05:21:02;181.23;;;16.47;;
13443;SDS011;6794;59.218;18.218;2022-10-31T05:23:28;195.73;;;17.37;;
13443;SDS011;6794;59.218;18.218;2022-10-31T05:25:54;153.30;;;14.37;;
13443;SDS011;6794;59.218;18.218;2022-10-31T05:28:20;184.02;;;20.45;;
13443;SDS011;6794;59.218;18.218;2022-10-31T05:30:46;165.53;;;16.73;;
13443;SDS011;6794;59.218;18.218;2022-10-31T05:33:12;117.97;;;13.67;;
13443;SDS011;6794;59.218;18.218;2022-10-31T05:35:38;97.17;;;12.03;;
13443;SDS011;6794;59.218;18.218;2022-10-31T05:38:04;181.07;;;15.17;;
13443;SDS011;6794;59.218;18.218;2022-10-31T05:40:30;171.30;;;17.03;;
13443;SDS011;6794;59.218;18.218;2022-10-31T05:42:56;247.37;;;18.87;;
13443;SDS011;6794;59.218;18.218;2022-10-31T05:45:23;216.53;;;18.00;;
13443;SDS011;6794;59.218;18.218;2022-10-31T05:47:53;232.17;;;18.60;;
13443;SDS011;6794;59.218;18.218;2022-10-31T05:50:20;139.80;;;13.83;;
13443;SDS011;6794;59.218;18.218;2022-10-31T05:52:46;168.97;;;14.60;;
13443;SDS011;6794;59.218;18.218;2022-10-31T05:55:12;124.30;;;11.80;;
13443;SDS011;6794;59.218;18.218;2022-10-31T05:57:38;213.30;;;17.47;;
13443;SDS011;6794;59.218;18.218;2022-10-31T06:00:05;160.20;;;14.93;;
13443;SDS011;6794;59.218;18.218;2022-10-31T06:02:31;128.77;;;13.70;;
13443;SDS011;6794;59.218;18.218;2022-10-31T06:04:59;186.60;;;16.53;;
13443;SDS011;6794;59.218;18.218;2022-10-31T06:07:25;78.50;;;10.03;;
13443;SDS011;6794;59.218;18.218;2022-10-31T06:09:52;106.70;;;10.93;;
13443;SDS011;6794;59.218;18.218;2022-10-31T06:12:18;102.30;;;10.97;;
13443;SDS011;6794;59.218;18.218;2022-10-31T06:14:44;66.40;;;8.93;;
13443;SDS011;6794;59.218;18.218;2022-10-31T06:17:10;180.50;;;14.73;;
13443;SDS011;6794;59.218;18.218;2022-10-31T06:19:36;137.10;;;14.00;;
13443;SDS011;6794;59.218;18.218;2022-10-31T06:22:02;148.27;;;15.33;;
13443;SDS011;6794;59.218;18.218;2022-10-31T06:24:28;125.70;;;13.70;;
13443;SDS011;6794;59.218;18.218;2022-10-31T06:26:54;143.17;;;13.80;;
13443;SDS011;6794;59.218;18.218;2022-10-31T06:29:20;175.43;;;15.10;;
13443;SDS011;6794;59.218;18.218;2022-10-31T06:31:46;164.73;;;14.30;;
13443;SDS011;6794;59.218;18.218;2022-10-31T06:34:12;107.67;;;11.20;;
13443;SDS011;6794;59.218;18.218;2022-10-31T06:36:38;127.87;;;12.63;;
13443;SDS011;6794;59.218;18.218;2022-10-31T06:39:04;144.30;;;14.17;;
13443;SDS011;6794;59.218;18.218;2022-10-31T06:41:30;108.40;;;12.33;;
13443;SDS011;6794;59.218;18.218;2022-10-31T06:43:56;159.47;;;15.27;;
13443;SDS011;6794;59.218;18.218;2022-10-31T06:46:22;290.87;;;21.77;;
13443;SDS011;6794;59.218;18.218;2022-10-31T06:48:48;188.90;;;16.53;;
13443;SDS011;6794;59.218;18.218;2022-10-31T06:51:14;144.93;;;13.10;;
13443;SDS011;6794;59.218;18.218;2022-10-31T06:53:40;99.30;;;11.23;;
13443;SDS011;6794;59.218;18.218;2022-10-31T06:56:06;105.03;;;12.77;;
13443;SDS011;6794;59.218;18.218;2022-10-31T06:58:32;102.93;;;11.63;;
13443;SDS011;6794;59.218;18.218;2022-10-31T07:00:59;66.83;;;10.37;;
13443;SDS011;6794;59.218;18.218;2022-10-31T07:03:25;95.30;;;12.10;;
13443;SDS011;6794;59.218;18.218;2022-10-31T07:05:51;140.17;;;15.17;;
13443;SDS011;6794;59.218;18.218;2022-10-31T07:08:17;108.33;;;11.53;;
13443;SDS011;6794;59.218;18.218;2022-10-31T07:10:50;116.13;;;12.67;;
13443;SDS011;6794;59.218;18.218;2022-10-31T07:13:16;65.23;;;10.00;;
13443;SDS011;6794;59.218;18.218;2022-10-31T07:15:42;53.17;;;9.27;;
13443;SDS011;6794;59.218;18.218;2022-10-31T07:18:09;68.73;;;10.43;;
13443;SDS011;6794;59.218;18.218;2022-10-31T07:20:36;53.43;;;9.13;;
13443;SDS011;6794;59.218;18.218;2022-10-31T07:23:02;58.27;;;10.13;;
13443;SDS011;6794;59.218;18.218;2022-10-31T07:25:28;58.63;;;9.67;;
13443;SDS011;6794;59.218;18.218;2022-10-31T07:27:54;61.37;;;8.87;;
13443;SDS011;6794;59.218;18.218;2022-10-31T07:30:20;59.67;;;11.17;;
13443;SDS011;6794;59.218;18.218;2022-10-31T07:32:47;70.80;;;9.57;;
13443;SDS011;6794;59.218;18.218;2022-10-31T07:35:15;139.93;;;13.47;;
13443;SDS011;6794;59.218;18.218;2022-10-31T07:37:41;140.80;;;14.20;;
13443;SDS011;6794;59.218;18.218;2022-10-31T07:40:07;91.47;;;10.57;;
13443;SDS011;6794;59.218;18.218;2022-10-31T07:42:44;83.37;;;11.57;;
13443;SDS011;6794;59.218;18.218;2022-10-31T07:45:12;68.23;;;11.47;;
13443;SDS011;6794;59.218;18.218;2022-10-31T07:47:41;119.20;;;12.63;;
13443;SDS011;6794;59.218;18.218;2022-10-31T07:50:08;118.30;;;13.83;;
13443;SDS011;6794;59.218;18.218;2022-10-31T07:52:34;92.23;;;13.27;;
13443;SDS011;6794;59.218;18.218;2022-10-31T07:55:00;91.83;;;12.57;;
13443;SDS011;6794;59.218;18.218;2022-10-31T07:57:26;107.80;;;12.23;;
13443;SDS011;6794;59.218;18.218;2022-10-31T07:59:52;55.70;;;10.27;;
13443;SDS011;6794;59.218;18.218;2022-10-31T08:02:18;69.10;;;12.10;;
13443;SDS011;6794;59.218;18.218;2022-10-31T08:04:44;59.10;;;11.23;;
13443;SDS011;6794;59.218;18.218;2022-10-31T08:07:10;52.27;;;11.17;;
13443;SDS011;6794;59.218;18.218;2022-10-31T08:09:36;56.43;;;11.23;;
13443;SDS011;6794;59.218;18.218;2022-10-31T08:12:03;81.93;;;14.10;;
13443;SDS011;6794;59.218;18.218;2022-10-31T08:14:29;61.43;;;10.80;;
13443;SDS011;6794;59.218;18.218;2022-10-31T08:16:55;45.77;;;10.87;;
13443;SDS011;6794;59.218;18.218;2022-10-31T08:19:21;56.63;;;11.60;;
13443;SDS011;6794;59.218;18.218;2022-10-31T08:21:50;52.37;;;11.50;;
13443;SDS011;6794;59.218;18.218;2022-10-31T08:24:16;54.33;;;11.83;;
13443;SDS011;6794;59.218;18.218;2022-10-31T08:26:42;63.90;;;12.47;;
13443;SDS011;6794;59.218;18.218;2022-10-31T08:29:08;59.43;;;12.40;;
13443;SDS011;6794;59.218;18.218;2022-10-31T08:31:34;59.77;;;12.57;;
13443;SDS011;6794;59.218;18.218;2022-10-31T08:34:00;53.73;;;12.30;;
13443;SDS011;6794;59.218;18.218;2022-10-31T08:36:27;60.13;;;12.37;;
13443;SDS011;6794;59.218;18.218;2022-10-31T08:38:54;73.20;;;13.20;;
13443;SDS011;6794;59.218;18.218;2022-10-31T08:41:20;64.93;;;12.43;;
13443;SDS011;6794;59.218;18.218;2022-10-31T08:43:46;67.77;;;14.03;;
13443;SDS011;6794;59.218;18.218;2022-10-31T08:46:12;66.17;;;14.10;;
13443;SDS011;6794;59.218;18.218;2022-10-31T08:48:38;70.97;;;17.48;;
13443;SDS011;6794;59.218;18.218;2022-10-31T08:51:05;80.23;;;15.17;;
13443;SDS011;6794;59.218;18.218;2022-10-31T08:53:31;67.23;;;12.77;;
13443;SDS011;6794;59.218;18.218;2022-10-31T08:55:57;61.07;;;12.93;;
13443;SDS011;6794;59.218;18.218;2022-10-31T08:58:23;60.87;;;13.53;;
13443;SDS011;6794;59.218;18.218;2022-10-31T09:00:51;73.03;;;14.17;;
13443;SDS011;6794;59.218;18.218;2022-10-31T09:03:24;62.97;;;13.40;;
13443;SDS011;6794;59.218;18.218;2022-10-31T09:05:53;69.97;;;14.60;;
13443;SDS011;6794;59.218;18.218;2022-10-31T09:08:20;71.93;;;14.53;;
13443;SDS011;6794;59.218;18.218;2022-10-31T09:10:46;50.80;;;12.20;;
13443;SDS011;6794;59.218;18.218;2022-10-31T09:13:13;61.83;;;13.50;;
13443;SDS011;6794;59.218;18.218;2022-10-31T09:15:40;49.97;;;13.17;;
13443;SDS011;6794;59.218;18.218;2022-10-31T09:18:08;60.43;;;13.37;;
13443;SDS011;6794;59.218;18.218;2022-10-31T09:20:35;55.63;;;12.50;;
13443;SDS011;6794;59.218;18.218;2022-10-31T09:23:03;55.67;;;12.90;;
13443;SDS011;6794;59.218;18.218;2022-10-31T09:25:29;51.77;;;12.63;;
13443;SDS011;6794;59.218;18.218;2022-10-31T09:27:58;62.17;;;13.43;;
13443;SDS011;6794;59.218;18.218;2022-10-31T09:30:25;52.53;;;11.90;;
13443;SDS011;6794;59.218;18.218;2022-10-31T09:32:54;39.97;;;11.53;;
13443;SDS011;6794;59.218;18.218;2022-10-31T09:35:21;42.93;;;12.10;;
13443;SDS011;6794;59.218;18.218;2022-10-31T09:37:53;43.23;;;11.93;;
13443;SDS011;6794;59.218;18.218;2022-10-31T09:40:19;47.67;;;12.53;;
13443;SDS011;6794;59.218;18.218;2022-10-31T09:42:54;43.07;;;12.10;;
13443;SDS011;6794;59.218;18.218;2022-10-31T09:50:25;40.47;;;11.07;;
13443;SDS011;6794;59.218;18.218;2022-10-31T09:53:02;32.00;;;10.33;;
13443;SDS011;6794;59.218;18.218;2022-10-31T09:55:31;41.10;;;12.27;;
13443;SDS011;6794;59.218;18.218;2022-10-31T09:58:01;37.03;;;11.73;;
13443;SDS011;6794;59.218;18.218;2022-10-31T10:00:27;38.00;;;11.30;;
13443;SDS011;6794;59.218;18.218;2022-10-31T10:02:56;36.23;;;12.10;;
13443;SDS011;6794;59.218;18.218;2022-10-31T10:05:28;37.60;;;12.03;;
13443;SDS011;6794;59.218;18.218;2022-10-31T10:18:20;37.13;;;11.90;;
13443;SDS011;6794;59.218;18.218;2022-10-31T10:26:02;36.47;;;11.60;;
13443;SDS011;6794;59.218;18.218;2022-10-31T10:28:36;39.47;;;14.35;;
13443;SDS011;6794;59.218;18.218;2022-10-31T10:31:09;43.67;;;13.30;;
13443;SDS011;6794;59.218;18.218;2022-10-31T10:33:39;31.87;;;11.70;;
13443;SDS011;6794;59.218;18.218;2022-10-31T10:41:18;32.63;;;11.67;;
13443;SDS011;6794;59.218;18.218;2022-10-31T10:43:44;29.73;;;12.60;;
13443;SDS011;6794;59.218;18.218;2022-10-31T10:59:25;27.33;;;11.00;;
13443;SDS011;6794;59.218;18.218;2022-10-31T11:01:51;27.00;;;11.07;;
13443;SDS011;6794;59.218;18.218;2022-10-31T11:07:06;30.10;;;16.27;;
13443;SDS011;6794;59.218;18.218;2022-10-31T11:09:33;52.53;;;32.90;;
13443;SDS011;6794;59.218;18.218;2022-10-31T11:12:00;41.07;;;22.77;;
13443;SDS011;6794;59.218;18.218;2022-10-31T11:14:31;35.93;;;17.87;;
13443;SDS011;6794;59.218;18.218;2022-10-31T11:19:44;28.10;;;12.03;;
13443;SDS011;6794;59.218;18.218;2022-10-31T11:22:16;30.27;;;13.47;;
13443;SDS011;6794;59.218;18.218;2022-10-31T11:24:43;26.37;;;12.43;;
13443;SDS011;6794;59.218;18.218;2022-10-31T11:27:16;27.23;;;11.20;;
13443;SDS011;6794;59.218;18.218;2022-10-31T11:29:45;28.67;;;14.23;;
13443;SDS011;6794;59.218;18.218;2022-10-31T11:32:20;22.00;;;9.57;;
13443;SDS011;6794;59.218;18.218;2022-10-31T11:34:49;19.00;;;10.47;;
13443;SDS011;6794;59.218;18.218;2022-10-31T11:37:20;23.37;;;12.77;;
13443;SDS011;6794;59.218;18.218;2022-10-31T11:39:54;22.00;;;9.10;;
13443;SDS011;6794;59.218;18.218;2022-10-31T11:42:34;20.17;;;8.90;;
13443;SDS011;6794;59.218;18.218;2022-10-31T11:45:02;19.60;;;9.20;;
13443;SDS011;6794;59.218;18.218;2022-10-31T11:47:31;19.33;;;9.37;;
13443;SDS011;6794;59.218;18.218;2022-10-31T11:49:58;20.23;;;9.50;;
13443;SDS011;6794;59.218;18.218;2022-10-31T11:52:27;24.03;;;10.27;;
13443;SDS011;6794;59.218;18.218;2022-10-31T11:54:55;19.63;;;8.77;;
13443;SDS011;6794;59.218;18.218;2022-10-31T11:57:22;22.03;;;9.40;;
13443;SDS011;6794;59.218;18.218;2022-10-31T11:59:51;22.07;;;9.63;;
13443;SDS011;6794;59.218;18.218;2022-10-31T12:02:18;19.30;;;8.57;;
13443;SDS011;6794;59.218;18.218;2022-10-31T12:04:46;22.37;;;10.20;;
13443;SDS011;6794;59.218;18.218;2022-10-31T12:07:14;24.27;;;9.50;;
13443;SDS011;6794;59.218;18.218;2022-10-31T12:09:40;19.92;;;10.00;;
13443;SDS011;6794;59.218;18.218;2022-10-31T12:17:18;23.07;;;9.90;;
13443;SDS011;6794;59.218;18.218;2022-10-31T12:22:20;24.03;;;10.07;;
13443;SDS011;6794;59.218;18.218;2022-10-31T12:30:33;19.80;;;9.33;;
13443;SDS011;6794;59.218;18.218;2022-10-31T12:33:50;16.77;;;9.17;;
13443;SDS011;6794;59.218;18.218;2022-10-31T12:35:51;20.07;;;8.30;;
13443;SDS011;6794;59.218;18.218;2022-10-31T12:38:30;20.70;;;9.10;;
13443;SDS011;6794;59.218;18.218;2022-10-31T12:43:36;18.47;;;8.53;;
13443;SDS011;6794;59.218;18.218;2022-10-31T12:46:13;15.37;;;7.90;;
13443;SDS011;6794;59.218;18.218;2022-10-31T12:54:05;16.17;;;7.93;;
13443;SDS011;6794;59.218;18.218;2022-10-31T12:56:41;14.70;;;7.10;;
13443;SDS011;6794;59.218;18.218;2022-10-31T12:59:11;18.53;;;7.83;;
13443;SDS011;6794;59.218;18.218;2022-10-31T13:01:44;20.10;;;7.60;;
13443;SDS011;6794;59.218;18.218;2022-10-31T13:04:14;14.40;;;6.87;;
13443;SDS011;6794;59.218;18.218;2022-10-31T13:06:53;12.57;;;7.53;;
13443;SDS011;6794;59.218;18.218;2022-10-31T13:09:33;16.07;;;7.43;;
13443;SDS011;6794;59.218;18.218;2022-10-31T13:12:10;12.00;;;6.87;;
13443;SDS011;6794;59.218;18.218;2022-10-31T13:14:42;10.43;;;6.30;;
13443;SDS011;6794;59.218;18.218;2022-10-31T13:17:13;12.17;;;6.70;;
13443;SDS011;6794;59.218;18.218;2022-10-31T13:19:43;14.43;;;7.33;;
13443;SDS011;6794;59.218;18.218;2022-10-31T13:22:24;15.33;;;7.93;;
13443;SDS011;6794;59.218;18.218;2022-10-31T13:24:55;14.10;;;7.03;;
13443;SDS011;6794;59.218;18.218;2022-10-31T13:27:24;15.63;;;7.10;;
13443;SDS011;6794;59.218;18.218;2022-10-31T13:29:57;14.33;;;7.07;;
13443;SDS011;6794;59.218;18.218;2022-10-31T13:32:25;15.63;;;7.10;;
13443;SDS011;6794;59.218;18.218;2022-10-31T13:34:53;11.30;;;7.43;;
13443;SDS011;6794;59.218;18.218;2022-10-31T13:37:32;12.43;;;6.83;;
13443;SDS011;6794;59.218;18.218;2022-10-31T13:45:14;14.50;;;6.47;;
13443;SDS011;6794;59.218;18.218;2022-10-31T13:47:41;11.87;;;7.03;;
13443;SDS011;6794;59.218;18.218;2022-10-31T13:50:24;14.53;;;6.80;;
13443;SDS011;6794;59.218;18.218;2022-10-31T13:52:50;15.77;;;7.40;;
13443;SDS011;6794;59.218;18.218;2022-10-31T13:58:05;13.40;;;6.73;;
13443;SDS011;6794;59.218;18.218;2022-10-31T14:00:44;14.97;;;7.23;;
13443;SDS011;6794;59.218;18.218;2022-10-31T14:03:19;14.87;;;7.10;;
13443;SDS011;6794;59.218;18.218;2022-10-31T14:05:51;13.20;;;6.87;;
13443;SDS011;6794;59.218;18.218;2022-10-31T14:08:20;10.80;;;6.83;;
13443;SDS011;6794;59.218;18.218;2022-10-31T14:10:48;14.80;;;7.17;;
13443;SDS011;6794;59.218;18.218;2022-10-31T14:13:20;12.70;;;6.80;;
13443;SDS011;6794;59.218;18.218;2022-10-31T14:15:58;13.80;;;7.00;;
13443;SDS011;6794;59.218;18.218;2022-10-31T14:18:30;11.63;;;6.93;;
13443;SDS011;6794;59.218;18.218;2022-10-31T14:20:57;12.00;;;6.50;;
13443;SDS011;6794;59.218;18.218;2022-10-31T14:28:46;10.47;;;6.30;;
13443;SDS011;6794;59.218;18.218;2022-10-31T14:34:02;14.60;;;6.40;;
13443;SDS011;6794;59.218;18.218;2022-10-31T14:36:39;15.63;;;6.50;;
13443;SDS011;6794;59.218;18.218;2022-10-31T14:39:29;14.60;;;6.53;;
13443;SDS011;6794;59.218;18.218;2022-10-31T14:42:03;14.07;;;6.97;;
13443;SDS011;6794;59.218;18.218;2022-10-31T14:52:18;14.10;;;5.97;;
13443;SDS011;6794;59.218;18.218;2022-10-31T14:54:48;13.53;;;6.93;;
13443;SDS011;6794;59.218;18.218;2022-10-31T14:57:20;12.03;;;6.50;;
13443;SDS011;6794;59.218;18.218;2022-10-31T14:59:48;11.90;;;6.93;;
13443;SDS011;6794;59.218;18.218;2022-10-31T15:02:35;16.40;;;6.70;;
13443;SDS011;6794;59.218;18.218;2022-10-31T15:05:10;13.77;;;5.90;;
13443;SDS011;6794;59.218;18.218;2022-10-31T15:07:36;13.30;;;6.60;;
13443;SDS011;6794;59.218;18.218;2022-10-31T15:10:47;11.57;;;7.00;;
13443;SDS011;6794;59.218;18.218;2022-10-31T15:13:19;15.97;;;6.20;;
13443;SDS011;6794;59.218;18.218;2022-10-31T15:15:46;13.00;;;7.17;;
13443;SDS011;6794;59.218;18.218;2022-10-31T15:18:15;14.93;;;6.67;;
13443;SDS011;6794;59.218;18.218;2022-10-31T15:20:42;16.93;;;6.60;;
13443;SDS011;6794;59.218;18.218;2022-10-31T15:23:10;12.67;;;6.27;;
13443;SDS011;6794;59.218;18.218;2022-10-31T15:25:37;13.83;;;6.70;;
13443;SDS011;6794;59.218;18.218;2022-10-31T15:28:12;12.40;;;6.80;;
13443;SDS011;6794;59.218;18.218;2022-10-31T15:30:38;19.03;;;7.70;;
13443;SDS011;6794;59.218;18.218;2022-10-31T15:33:16;12.73;;;7.47;;
13443;SDS011;6794;59.218;18.218;2022-10-31T15:35:53;16.27;;;7.60;;
13443;SDS011;6794;59.218;18.218;2022-10-31T15:38:20;18.52;;;10.93;;
13443;SDS011;6794;59.218;18.218;2022-10-31T15:40:51;19.10;;;9.13;;
13443;SDS011;6794;59.218;18.218;2022-10-31T15:43:18;16.20;;;10.83;;
13443;SDS011;6794;59.218;18.218;2022-10-31T15:45:44;17.00;;;10.33;;
13443;SDS011;6794;59.218;18.218;2022-10-31T15:48:16;18.50;;;11.03;;
13443;SDS011;6794;59.218;18.218;2022-10-31T15:50:50;16.93;;;8.93;;
13443;SDS011;6794;59.218;18.218;2022-10-31T15:53:21;18.10;;;9.03;;
13443;SDS011;6794;59.218;18.218;2022-10-31T15:55:59;20.47;;;12.73;;
13443;SDS011;6794;59.218;18.218;2022-10-31T15:58:26;18.70;;;10.43;;
13443;SDS011;6794;59.218;18.218;2022-10-31T16:01:00;16.50;;;9.10;;
13443;SDS011;6794;59.218;18.218;2022-10-31T16:03:28;18.10;;;8.97;;
13443;SDS011;6794;59.218;18.218;2022-10-31T16:05:59;15.83;;;9.70;;
13443;SDS011;6794;59.218;18.218;2022-10-31T16:10:55;17.07;;;9.00;;
13443;SDS011;6794;59.218;18.218;2022-10-31T16:13:28;18.13;;;9.20;;
13443;SDS011;6794;59.218;18.218;2022-10-31T16:15:56;24.97;;;10.00;;
13443;SDS011;6794;59.218;18.218;2022-10-31T16:18:23;23.57;;;13.07;;
13443;SDS011;6794;59.218;18.218;2022-10-31T16:20:50;20.43;;;12.83;;
13443;SDS011;6794;59.218;18.218;2022-10-31T16:23:18;22.70;;;14.13;;
13443;SDS011;6794;59.218;18.218;2022-10-31T16:25:45;23.80;;;12.00;;
13443;SDS011;6794;59.218;18.218;2022-10-31T16:28:18;27.97;;;11.70;;
13443;SDS011;6794;59.218;18.218;2022-10-31T16:30:47;18.00;;;10.50;;
13443;SDS011;6794;59.218;18.218;2022-10-31T16:36:01;16.17;;;8.63;;
13443;SDS011;6794;59.218;18.218;2022-10-31T16:38:27;25.13;;;11.83;;
13443;SDS011;6794;59.218;18.218;2022-10-31T16:40:53;21.53;;;11.50;;
13443;SDS011;6794;59.218;18.218;2022-10-31T16:43:19;24.20;;;10.23;;
13443;SDS011;6794;59.218;18.218;2022-10-31T16:45:48;20.63;;;8.83;;
13443;SDS011;6794;59.218;18.218;2022-10-31T16:48:15;32.20;;;18.17;;